Time;durP1;ratioP1;P1;durP2;ratioP2;P2;SDS_P1;SDS_P2;PMS_P1;PMS_P2;Temp;Humidity;BMP_temperature;BMP_pressure;BME280_temperature;BME280_humidity;BME280_pressure;Samples;Min_cycle;Max_cycle;Signal;HPM_P1;HPM_P2
2023/10/30 00:02:47;;;;;;;5.43;3.93;;;9.80;83.20;;;;;;8330881;28;20210;-63
2023/10/30 00:06:48;;;;;;;5.80;4.70;;;9.70;99.90;;;;;;8329362;28;20216;-62
2023/10/30 00:10:49;;;;;;;4.30;3.47;;;9.60;99.90;;;;;;8332345;28;20209;-61
2023/10/30 00:14:53;;;;;;;6.23;3.97;;;9.60;99.90;;;;;;8331750;28;20189;-63
2023/10/30 00:18:56;;;;;;;7.37;3.73;;;9.60;99.90;;;;;;8328870;28;20264;-64
2023/10/30 00:22:57;;;;;;;4.70;3.40;;;9.60;99.90;;;;;;8326418;28;20249;-62
2023/10/30 00:26:58;;;;;;;4.43;3.90;;;9.60;99.90;;;;;;8327590;28;20224;-62
2023/10/30 00:31:00;;;;;;;4.53;3.80;;;9.70;99.90;;;;;;8330939;28;20196;-64
2023/10/30 00:35:01;;;;;;;6.33;3.53;;;9.60;99.90;;;;;;8325252;28;20204;-63
2023/10/30 00:39:03;;;;;;;6.10;3.40;;;9.60;99.90;;;;;;8328838;28;20184;-63
2023/10/30 00:43:04;;;;;;;4.10;3.33;;;9.70;99.90;;;;;;8328337;28;20211;-64
2023/10/30 00:47:05;;;;;;;5.90;3.37;;;9.70;86.30;;;;;;8332877;28;20233;-62
2023/10/30 00:51:06;;;;;;;7.07;2.93;;;9.80;19.90;;;;;;8327194;28;20226;-63
2023/10/30 00:55:08;;;;;;;4.20;3.03;;;9.90;1.00;;;;;;8324137;28;20209;-64
2023/10/30 00:59:09;;;;;;;5.47;2.47;;;10.10;1.00;;;;;;8329190;28;20204;-64
2023/10/30 01:03:10;;;;;;;4.77;2.90;;;10.20;99.90;;;;;;8327533;28;20215;-63
2023/10/30 01:07:10;;;;;;;3.90;2.67;;;10.40;99.90;;;;;;8329951;28;20271;-64
2023/10/30 01:11:11;;;;;;;3.80;2.53;;;10.50;99.90;;;;;;8326229;28;20217;-64
2023/10/30 01:15:13;;;;;;;2.70;2.30;;;10.60;99.90;;;;;;8326457;28;20284;-63
2023/10/30 01:19:13;;;;;;;2.73;2.10;;;10.80;99.90;;;;;;8359876;28;20195;-63
2023/10/30 01:23:15;;;;;;;2.90;2.13;;;10.90;99.90;;;;;;8334239;28;20525;-63
2023/10/30 01:27:16;;;;;;;3.53;2.30;;;11.00;99.90;;;;;;8326529;28;20278;-63
2023/10/30 01:31:17;;;;;;;5.00;2.30;;;11.00;99.90;;;;;;8325786;28;20209;-62
2023/10/30 01:35:18;;;;;;;2.60;2.30;;;10.90;99.90;;;;;;8324089;28;20182;-62
2023/10/30 01:39:19;;;;;;;3.70;2.40;;;10.90;99.90;;;;;;8329221;28;20202;-62
2023/10/30 01:43:30;;;;;;;2.67;2.30;;;10.90;99.90;;;;;;8327379;28;20198;-63
2023/10/30 01:47:30;;;;;;;4.03;2.10;;;11.10;99.90;;;;;;8328574;28;20181;-63
2023/10/30 01:51:31;;;;;;;5.23;2.37;;;11.20;99.90;;;;;;8322669;28;20182;-63
2023/10/30 01:55:33;;;;;;;2.97;2.13;;;11.40;93.60;;;;;;8326774;28;20204;-66
2023/10/30 01:59:34;;;;;;;3.10;1.83;;;11.50;55.70;;;;;;8343926;28;20206;-66
2023/10/30 02:03:35;;;;;;;3.87;1.97;;;11.60;46.10;;;;;;8326831;28;20299;-67
2023/10/30 02:07:36;;;;;;;4.33;2.00;;;11.70;27.80;;;;;;8326396;28;20187;-67
2023/10/30 02:11:37;;;;;;;2.33;1.73;;;11.80;13.00;;;;;;8327554;28;20182;-66
2023/10/30 02:15:38;;;;;;;2.27;1.70;;;11.80;4.70;;;;;;8355117;28;20198;-67
2023/10/30 02:19:39;;;;;;;2.27;2.00;;;11.80;2.20;;;;;;8327657;28;20187;-67
2023/10/30 02:23:39;;;;;;;2.00;1.53;;;11.80;1.00;;;;;;8331558;28;20328;-68
2023/10/30 02:27:40;;;;;;;2.63;2.00;;;11.70;1.00;;;;;;8324567;28;20182;-66
2023/10/30 02:31:42;;;;;;;3.17;1.60;;;11.50;1.00;;;;;;8322864;28;20182;-67
2023/10/30 02:35:43;;;;;;;2.70;1.53;;;11.30;7.20;;;;;;8327244;28;20316;-66
2023/10/30 02:39:45;;;;;;;2.50;1.60;;;11.20;18.40;;;;;;8322696;28;20299;-66
2023/10/30 02:43:46;;;;;;;4.30;1.87;;;11.00;34.80;;;;;;8327027;28;20225;-67
2023/10/30 02:47:47;;;;;;;3.17;2.03;;;11.00;63.10;;;;;;8326934;28;20198;-66
2023/10/30 02:51:49;;;;;;;3.17;1.73;;;11.10;76.70;;;;;;8325862;28;20194;-66
2023/10/30 02:55:50;;;;;;;3.67;2.07;;;11.20;71.10;;;;;;8332694;28;20210;-67
2023/10/30 02:59:51;;;;;;;2.60;2.00;;;11.30;69.30;;;;;;8331734;28;20210;-66
2023/10/30 03:03:51;;;;;;;3.10;1.83;;;11.30;73.00;;;;;;8328341;28;20730;-66
2023/10/30 03:07:52;;;;;;;2.50;2.10;;;11.20;84.50;;;;;;8331420;28;20495;-66
2023/10/30 03:11:53;;;;;;;2.43;2.07;;;11.10;99.90;;;;;;8328751;28;20209;-65
2023/10/30 03:15:54;;;;;;;3.03;2.10;;;10.90;99.90;;;;;;8330232;28;20201;-66
2023/10/30 03:19:55;;;;;;;2.90;1.93;;;10.90;99.90;;;;;;8331425;28;20178;-65
2023/10/30 03:23:56;;;;;;;3.00;1.83;;;10.90;99.90;;;;;;8348297;28;20296;-65
2023/10/30 03:27:56;;;;;;;2.97;2.07;;;10.90;99.90;;;;;;8330019;28;20289;-66
2023/10/30 03:31:57;;;;;;;4.40;2.00;;;10.90;99.90;;;;;;8326307;28;20193;-66
2023/10/30 03:35:59;;;;;;;2.67;1.73;;;10.90;99.90;;;;;;8328828;28;20243;-67
2023/10/30 03:40:00;;;;;;;2.97;2.07;;;11.00;99.90;;;;;;8329092;28;20547;-66
2023/10/30 03:44:01;;;;;;;3.67;2.20;;;11.10;99.90;;;;;;8325375;28;20205;-68
2023/10/30 03:48:02;;;;;;;2.87;2.10;;;11.10;99.90;;;;;;8357430;28;20202;-69
2023/10/30 03:52:03;;;;;;;2.17;1.60;;;11.10;99.90;;;;;;8333085;28;20200;-68
2023/10/30 03:56:06;;;;;;;2.80;2.03;;;11.10;99.90;;;;;;8329663;28;20212;-68
2023/10/30 04:00:08;;;;;;;2.93;2.00;;;11.00;99.90;;;;;;8357283;28;20296;-67
2023/10/30 04:04:09;;;;;;;2.33;1.90;;;10.90;99.90;;;;;;8331070;28;20260;-67
2023/10/30 04:08:10;;;;;;;2.63;1.87;;;10.80;99.90;;;;;;8326943;28;20181;-66
2023/10/30 04:12:10;;;;;;;2.47;1.77;;;10.70;99.90;;;;;;8326908;28;20182;-67
2023/10/30 04:16:13;;;;;;;1.50;1.40;;;10.60;99.90;;;;;;8328764;28;20184;-64
2023/10/30 04:20:14;;;;;;;3.53;1.80;;;10.60;99.90;;;;;;8324738;28;20272;-60
2023/10/30 04:24:15;;;;;;;3.37;2.10;;;10.70;99.90;;;;;;8327701;28;20219;-61
2023/10/30 04:28:15;;;;;;;3.30;1.93;;;10.80;99.90;;;;;;8328800;28;20277;-62
2023/10/30 04:32:16;;;;;;;3.23;1.67;;;11.00;99.90;;;;;;8324973;28;20308;-63
2023/10/30 04:36:17;;;;;;;2.87;2.20;;;11.20;99.90;;;;;;8328327;28;20210;-63
2023/10/30 04:40:18;;;;;;;2.33;2.10;;;11.20;99.90;;;;;;8326608;28;20185;-63
2023/10/30 04:44:19;;;;;;;3.47;1.87;;;11.30;99.90;;;;;;8328538;28;20322;-61
2023/10/30 04:48:20;;;;;;;3.23;2.37;;;11.40;99.90;;;;;;8324990;28;20200;-63
2023/10/30 04:52:20;;;;;;;4.57;2.27;;;11.50;99.90;;;;;;8326830;28;20194;-61
2023/10/30 04:56:24;;;;;;;2.37;1.87;;;11.50;99.90;;;;;;8333072;28;20292;-62
2023/10/30 05:00:25;;;;;;;2.40;1.80;;;11.60;99.90;;;;;;8324225;28;20551;-62
2023/10/30 05:04:25;;;;;;;2.70;1.80;;;11.60;99.90;;;;;;8324220;28;20214;-60
2023/10/30 05:08:26;;;;;;;2.17;1.73;;;11.60;99.90;;;;;;8324960;28;20189;-61
2023/10/30 05:12:27;;;;;;;2.47;1.47;;;11.60;99.90;;;;;;8326764;28;20333;-61
2023/10/30 05:16:28;;;;;;;2.70;1.70;;;11.60;99.90;;;;;;8321707;28;20190;-61
2023/10/30 05:20:28;;;;;;;2.93;1.70;;;11.50;99.90;;;;;;8327369;28;20182;-62
2023/10/30 05:24:29;;;;;;;2.07;1.77;;;11.50;99.90;;;;;;8325022;28;20301;-69
2023/10/30 05:28:30;;;;;;;1.80;1.40;;;11.40;99.90;;;;;;8329563;28;20186;-69
2023/10/30 05:32:31;;;;;;;3.00;1.67;;;11.30;99.90;;;;;;8327083;28;20193;-67
2023/10/30 05:36:32;;;;;;;3.33;1.87;;;11.20;99.90;;;;;;8338318;28;20276;-68
2023/10/30 05:40:34;;;;;;;2.80;1.70;;;11.10;99.90;;;;;;8328159;28;20189;-66
2023/10/30 05:44:35;;;;;;;1.60;1.50;;;11.00;99.90;;;;;;8328433;28;20213;-67
2023/10/30 05:48:35;;;;;;;1.90;1.70;;;10.90;99.90;;;;;;8327413;28;20213;-66
2023/10/30 05:52:37;;;;;;;4.67;1.83;;;10.80;99.90;;;;;;8325392;28;20181;-66
2023/10/30 05:56:38;;;;;;;1.80;1.67;;;10.70;99.90;;;;;;8329857;28;20621;-66
2023/10/30 06:00:40;;;;;;;1.43;1.17;;;10.50;99.90;;;;;;8325943;28;20236;-65
2023/10/30 06:04:41;;;;;;;1.73;1.60;;;10.30;99.90;;;;;;8325788;28;20332;-66
2023/10/30 06:08:42;;;;;;;2.50;1.60;;;10.10;99.90;;;;;;8326719;28;20185;-67
2023/10/30 06:12:44;;;;;;;2.10;1.90;;;10.00;1.00;;;;;;8328403;28;20422;-67
2023/10/30 06:16:45;;;;;;;5.00;4.00;;;9.90;1.00;;;;;;8359449;28;20216;-66
2023/10/30 06:20:46;;;;;;;5.57;4.70;;;9.90;43.00;;;;;;8326386;28;20252;-67
2023/10/30 06:24:47;;;;;;;4.10;3.37;;;10.00;99.90;;;;;;8326785;28;20224;-67
2023/10/30 06:28:48;;;;;;;3.47;2.70;;;10.00;99.90;;;;;;8329848;28;20260;-67
2023/10/30 06:32:49;;;;;;;2.07;1.87;;;10.00;95.90;;;;;;8362959;28;20196;-68
2023/10/30 06:36:52;;;;;;;2.97;2.47;;;10.00;52.00;;;;;;8334459;28;20189;-67
2023/10/30 06:40:55;;;;;;;2.87;2.20;;;9.90;99.90;;;;;;8336490;28;20189;-67
2023/10/30 06:44:56;;;;;;;2.67;1.90;;;9.80;99.90;;;;;;8334286;28;20429;-63
2023/10/30 06:48:56;;;;;;;3.73;2.43;;;9.60;99.90;;;;;;8332784;28;20236;-62
2023/10/30 06:52:57;;;;;;;3.73;2.40;;;9.60;99.90;;;;;;8333420;28;20204;-62
2023/10/30 06:56:58;;;;;;;31.13;15.90;;;9.60;99.90;;;;;;8335226;28;20294;-64
2023/10/30 07:01:03;;;;;;;33.63;17.83;;;9.60;99.90;;;;;;8330658;28;20584;-63
2023/10/30 07:05:04;;;;;;;35.77;22.43;;;9.60;1.00;;;;;;8332456;28;20220;-62
2023/10/30 07:09:08;;;;;;;18.33;12.00;;;9.70;1.00;;;;;;8333118;28;20197;-63
2023/10/30 07:13:10;;;;;;;17.90;14.00;;;9.70;99.90;;;;;;8332050;28;20189;-64
2023/10/30 07:17:11;;;;;;;18.83;14.37;;;9.70;99.90;;;;;;8331765;28;20251;-64
2023/10/30 07:21:12;;;;;;;19.13;15.30;;;9.60;99.90;;;;;;8332921;28;20385;-62
2023/10/30 07:25:12;;;;;;;12.73;9.93;;;9.60;99.90;;;;;;8362690;28;20296;-65
2023/10/30 07:29:13;;;;;;;7.80;5.63;;;9.60;99.90;;;;;;8331332;28;20252;-63
2023/10/30 07:33:14;;;;;;;8.07;5.20;;;9.60;99.90;;;;;;8329121;28;20199;-64
2023/10/30 07:37:15;;;;;;;5.13;4.20;;;9.60;99.90;;;;;;8334101;28;20288;-65
2023/10/30 07:41:15;;;;;;;5.93;4.63;;;9.70;99.90;;;;;;8336073;28;20197;-63
2023/10/30 07:45:16;;;;;;;5.07;3.40;;;9.90;99.90;;;;;;8332093;28;20214;-63
2023/10/30 07:49:17;;;;;;;5.90;4.53;;;10.20;1.00;;;;;;8330723;28;20185;-64
2023/10/30 07:53:18;;;;;;;9.13;6.77;;;10.50;1.00;;;;;;8332608;28;20189;-67
2023/10/30 07:57:19;;;;;;;11.00;8.57;;;10.80;99.90;;;;;;8330916;28;20204;-67
2023/10/30 08:01:20;;;;;;;6.73;5.93;;;11.20;99.90;;;;;;8328835;28;20208;-67
2023/10/30 08:05:22;;;;;;;3.77;3.03;;;11.70;99.90;;;;;;8331463;28;20206;-67
2023/10/30 08:09:23;;;;;;;4.70;2.87;;;12.10;1.00;;;;;;8329171;28;20183;-67
2023/10/30 08:13:24;;;;;;;3.53;2.40;;;12.60;99.90;;;;;;8328020;28;20190;-67
2023/10/30 08:17:24;;;;;;;3.40;2.67;;;13.00;1.00;;;;;;8334496;28;20185;-67
2023/10/30 08:21:25;;;;;;;5.10;3.40;;;13.20;99.90;;;;;;8328726;28;20179;-67
2023/10/30 08:25:27;;;;;;;6.57;4.10;;;13.20;99.90;;;;;;8326519;28;20214;-66
2023/10/30 08:29:28;;;;;;;5.37;3.77;;;13.00;99.90;;;;;;8331935;28;20310;-67
2023/10/30 08:33:29;;;;;;;4.03;3.10;;;13.00;99.90;;;;;;8327122;28;20186;-66
2023/10/30 08:37:29;;;;;;;4.97;2.63;;;13.00;99.90;;;;;;8329413;28;20182;-67
2023/10/30 08:41:31;;;;;;;5.77;3.03;;;13.10;99.90;;;;;;8330452;28;20193;-68
2023/10/30 08:45:33;;;;;;;4.20;2.60;;;13.30;69.30;;;;;;8327113;28;20202;-67
2023/10/30 08:49:33;;;;;;;4.40;2.73;;;13.50;28.10;;;;;;8327576;28;20190;-66
2023/10/30 08:53:35;;;;;;;4.10;2.60;;;13.70;4.80;;;;;;8323843;28;20189;-66
2023/10/30 08:57:36;;;;;;;4.87;2.53;;;13.90;1.00;;;;;;8327716;28;20225;-69
2023/10/30 09:01:37;;;;;;;5.73;2.43;;;14.10;1.00;;;;;;8329066;28;20206;-68
2023/10/30 09:05:38;;;;;;;3.27;2.23;;;14.40;1.00;;;;;;8325954;28;20271;-68
2023/10/30 09:09:39;;;;;;;5.17;2.23;;;14.70;1.00;;;;;;8359035;28;20188;-67
2023/10/30 09:13:40;;;;;;;5.20;2.10;;;15.10;1.00;;;;;;8325360;28;20193;-67
2023/10/30 09:17:40;;;;;;;3.70;2.10;;;15.30;1.00;;;;;;8330027;28;20229;-66
2023/10/30 09:21:41;;;;;;;2.60;1.87;;;15.40;1.00;;;;;;8327095;28;20193;-68
2023/10/30 09:25:42;;;;;;;2.93;1.37;;;15.60;1.00;;;;;;8324262;28;20213;-66
2023/10/30 09:29:44;;;;;;;3.90;1.43;;;16.10;1.00;;;;;;8327555;28;20186;-69
2023/10/30 09:33:44;;;;;;;2.80;1.30;;;16.60;1.00;;;;;;8326480;28;20213;-67
2023/10/30 09:37:45;;;;;;;4.27;1.23;;;17.20;1.00;;;;;;8331481;28;20200;-67
2023/10/30 09:41:47;;;;;;;2.03;1.20;;;17.80;1.00;;;;;;8328892;28;20189;-67
2023/10/30 09:45:56;;;;;;;1.53;1.10;;;18.00;1.00;;;;;;8324507;28;20217;-68
2023/10/30 09:49:58;;;;;;;2.97;1.47;;;18.10;1.00;;;;;;8342261;28;20190;-66
2023/10/30 09:53:59;;;;;;;1.80;1.10;;;18.10;1.00;;;;;;8325152;28;20205;-67
2023/10/30 09:58:00;;;;;;;2.97;1.40;;;18.10;1.00;;;;;;8326947;28;20205;-69
2023/10/30 10:02:02;;;;;;;1.57;0.93;;;18.20;1.00;;;;;;8327435;28;20262;-68
2023/10/30 10:06:03;;;;;;;1.90;1.30;;;18.40;1.00;;;;;;8334659;28;20400;-68
2023/10/30 10:10:06;;;;;;;1.63;0.93;;;18.40;1.00;;;;;;8338730;28;20190;-68
2023/10/30 10:14:07;;;;;;;1.60;1.07;;;18.20;1.00;;;;;;8334655;28;20186;-67
2023/10/30 10:18:28;;;;;;;2.93;1.07;;;18.10;1.00;;;;;;8335554;28;20190;-73
2023/10/30 10:22:32;;;;;;;2.00;1.20;;;18.00;1.00;;;;;;8332635;28;20316;-71
2023/10/30 10:26:35;;;;;;;2.67;1.30;;;17.90;1.00;;;;;;8332487;28;20456;-69
2023/10/30 10:30:38;;;;;;;1.57;1.00;;;17.90;1.00;;;;;;8333845;28;20240;-71
2023/10/30 10:34:40;;;;;;;2.03;1.00;;;17.90;1.00;;;;;;8338350;28;20186;-67
2023/10/30 10:38:59;;;;;;;1.50;0.80;;;18.00;1.00;;;;;;8331970;28;20196;-67
2023/10/30 10:43:02;;;;;;;2.43;0.67;;;17.80;1.00;;;;;;8344730;28;20199;-67
2023/10/30 10:47:03;;;;;;;1.33;0.67;;;17.70;1.00;;;;;;8332294;28;20279;-71
2023/10/30 10:51:06;;;;;;;3.17;0.90;;;17.70;1.00;;;;;;8335093;28;20186;-69
2023/10/30 10:55:08;;;;;;;3.63;0.97;;;17.70;1.00;;;;;;8367021;28;20197;-70
2023/10/30 10:59:14;;;;;;;2.10;0.60;;;17.80;1.00;;;;;;8365905;28;20206;-70
2023/10/30 11:03:15;;;;;;;1.63;0.77;;;17.90;1.00;;;;;;8328520;28;20359;-68
2023/10/30 11:07:37;;;;;;;1.00;0.60;;;17.90;1.00;;;;;;8329547;28;20190;-69
2023/10/30 11:12:03;;;;;;;1.23;0.50;;;17.90;1.00;;;;;;8332999;28;20197;-69
2023/10/30 11:16:13;;;;;;;1.67;0.63;;;17.90;1.00;;;;;;8326567;28;20201;-67
2023/10/30 11:20:21;;;;;;;2.47;0.60;;;17.90;1.00;;;;;;8336902;28;20179;-70
2023/10/30 11:24:42;;;;;;;1.10;0.70;;;18.00;1.00;;;;;;8329680;28;20217;-64
2023/10/30 11:28:43;;;;;;;1.13;0.70;;;18.10;1.00;;;;;;8363771;28;20527;-63
2023/10/30 11:32:44;;;;;;;1.13;0.60;;;18.20;1.00;;;;;;8331998;28;20185;-63
2023/10/30 11:36:50;;;;;;;1.70;1.10;;;18.20;1.00;;;;;;8327480;28;20198;-64
2023/10/30 11:41:03;;;;;;;2.23;0.57;;;18.30;1.00;;;;;;8331183;28;20195;-62
2023/10/30 11:45:24;;;;;;;1.23;0.77;;;18.30;1.00;;;;;;8328169;28;20660;-65
2023/10/30 11:49:32;;;;;;;2.83;0.70;;;18.40;1.00;;;;;;8331330;28;20175;-64
2023/10/30 11:53:34;;;;;;;2.30;0.70;;;18.50;1.00;;;;;;8334209;28;20186;-62
2023/10/30 11:57:36;;;;;;;0.60;0.43;;;18.50;1.00;;;;;;8326071;28;20287;-63
2023/10/30 12:01:38;;;;;;;1.60;0.90;;;18.50;1.00;;;;;;8331599;28;20205;-63
2023/10/30 12:05:39;;;;;;;1.63;0.80;;;18.50;1.00;;;;;;8328741;28;20206;-62
2023/10/30 12:09:40;;;;;;;1.57;0.63;;;18.50;1.00;;;;;;8328059;28;20190;-63
2023/10/30 12:13:41;;;;;;;2.17;0.70;;;18.50;1.00;;;;;;8332527;28;20401;-63
2023/10/30 12:17:41;;;;;;;3.30;1.00;;;18.60;1.00;;;;;;8359744;28;20193;-63
2023/10/30 12:21:43;;;;;;;2.60;0.73;;;18.70;1.00;;;;;;8332151;28;20194;-62
2023/10/30 12:25:44;;;;;;;1.20;0.67;;;18.80;1.00;;;;;;8327881;28;20206;-63
2023/10/30 12:29:46;;;;;;;2.83;0.90;;;18.90;1.00;;;;;;8331543;28;20186;-64
2023/10/30 12:33:47;;;;;;;2.27;0.60;;;18.90;1.00;;;;;;8327016;28;20182;-63
2023/10/30 12:37:48;;;;;;;1.07;0.53;;;18.90;1.00;;;;;;8328593;28;20193;-62
2023/10/30 12:41:53;;;;;;;1.90;0.80;;;18.80;1.00;;;;;;8361347;28;20259;-63
2023/10/30 12:45:54;;;;;;;0.90;0.73;;;18.80;1.00;;;;;;8326567;28;20240;-63
2023/10/30 12:49:56;;;;;;;1.60;0.60;;;18.90;1.00;;;;;;8327371;28;20182;-64
2023/10/30 12:53:58;;;;;;;0.90;0.53;;;18.80;1.00;;;;;;8329729;28;20202;-64
2023/10/30 12:57:58;;;;;;;2.37;0.60;;;18.70;1.00;;;;;;8329615;28;20193;-63
2023/10/30 13:02:00;;;;;;;1.40;0.90;;;18.60;1.00;;;;;;8328010;28;20206;-64
2023/10/30 13:06:01;;;;;;;0.73;0.50;;;18.60;1.00;;;;;;8330959;28;20216;-65
2023/10/30 13:10:02;;;;;;;1.73;0.90;;;18.60;1.00;;;;;;8325773;28;20186;-63
2023/10/30 13:14:03;;;;;;;1.20;0.70;;;18.70;1.00;;;;;;8326507;28;20920;-63
2023/10/30 13:18:04;;;;;;;1.27;0.67;;;18.80;1.00;;;;;;8324656;28;20197;-65
2023/10/30 13:22:05;;;;;;;0.90;0.60;;;18.80;1.00;;;;;;8359360;28;20186;-63
2023/10/30 13:26:06;;;;;;;0.60;0.40;;;18.90;1.00;;;;;;8331173;28;20217;-64
2023/10/30 13:30:08;;;;;;;0.60;0.50;;;18.80;1.00;;;;;;8323878;28;20229;-62
2023/10/30 13:34:10;;;;;;;1.37;0.40;;;18.90;1.00;;;;;;8327157;28;20221;-64
2023/10/30 13:38:14;;;;;;;0.77;0.57;;;18.80;1.00;;;;;;8325014;28;20198;-63
2023/10/30 13:42:15;;;;;;;1.57;0.87;;;18.80;1.00;;;;;;8357555;28;20194;-62
2023/10/30 13:46:16;;;;;;;1.30;0.70;;;18.80;1.00;;;;;;8359377;28;20182;-67
2023/10/30 13:50:17;;;;;;;1.53;0.83;;;18.70;1.00;;;;;;8325625;28;20182;-67
2023/10/30 13:54:19;;;;;;;0.73;0.60;;;18.60;1.00;;;;;;8326096;28;20208;-67
2023/10/30 13:58:19;;;;;;;1.30;0.90;;;18.50;1.00;;;;;;8327517;28;20205;-68
2023/10/30 14:02:21;;;;;;;2.33;0.80;;;18.40;1.00;;;;;;8325552;28;20230;-68
2023/10/30 14:06:22;;;;;;;2.57;1.03;;;18.30;1.00;;;;;;8325893;28;20299;-67
2023/10/30 14:10:23;;;;;;;1.00;0.60;;;18.10;1.00;;;;;;8324370;28;20175;-68
2023/10/30 14:14:24;;;;;;;2.73;0.80;;;17.90;1.00;;;;;;8357767;28;20245;-67
2023/10/30 14:18:25;;;;;;;1.53;0.70;;;17.80;1.00;;;;;;8327377;28;20510;-69
2023/10/30 14:22:26;;;;;;;1.90;1.00;;;17.60;1.00;;;;;;8329904;28;20200;-68
2023/10/30 14:26:28;;;;;;;2.50;1.20;;;17.30;1.00;;;;;;8324462;28;20186;-69
2023/10/30 14:30:29;;;;;;;2.23;1.20;;;17.10;1.00;;;;;;8325749;28;20189;-68
2023/10/30 14:34:29;;;;;;;3.37;2.30;;;16.90;1.00;;;;;;8323917;28;20187;-66
2023/10/30 14:38:30;;;;;;;3.87;2.50;;;16.80;1.00;;;;;;8361262;28;20186;-67
2023/10/30 14:42:31;;;;;;;2.97;2.30;;;16.60;1.00;;;;;;8326324;28;20250;-67
2023/10/30 14:46:32;;;;;;;3.93;2.50;;;16.40;1.00;;;;;;8327071;28;20204;-68
2023/10/30 14:50:33;;;;;;;5.50;4.00;;;16.20;1.00;;;;;;8329956;28;20190;-67
2023/10/30 14:54:33;;;;;;;7.03;5.03;;;16.00;1.00;;;;;;8332896;28;20197;-67
2023/10/30 14:58:34;;;;;;;4.20;2.53;;;15.80;1.00;;;;;;8332432;28;20182;-67
2023/10/30 15:02:38;;;;;;;2.20;1.50;;;15.70;1.00;;;;;;8327572;28;20202;-67
2023/10/30 15:06:39;;;;;;;4.73;2.43;;;15.50;1.00;;;;;;8330790;28;20178;-65
2023/10/30 15:10:40;;;;;;;4.83;3.00;;;15.30;1.00;;;;;;8335302;28;20297;-65
2023/10/30 15:14:41;;;;;;;3.47;2.47;;;15.10;1.00;;;;;;8335879;28;20190;-63
2023/10/30 15:18:42;;;;;;;3.60;1.70;;;15.00;1.00;;;;;;8359497;28;20217;-63
2023/10/30 15:22:44;;;;;;;1.90;1.47;;;14.80;1.00;;;;;;8331177;28;20318;-65
2023/10/30 15:26:46;;;;;;;2.00;1.40;;;14.60;11.00;;;;;;8335310;28;20185;-63
2023/10/30 15:30:51;;;;;;;1.87;1.10;;;14.40;29.60;;;;;;8331782;28;20207;-65
2023/10/30 15:34:51;;;;;;;3.30;1.80;;;14.30;56.20;;;;;;8328010;28;20189;-64
2023/10/30 15:38:52;;;;;;;3.37;1.73;;;14.10;95.30;;;;;;8329108;28;20604;-64
2023/10/30 15:42:54;;;;;;;2.77;1.53;;;14.00;99.90;;;;;;8335129;28;20206;-63
2023/10/30 15:46:55;;;;;;;1.90;1.37;;;13.90;99.90;;;;;;8330493;28;20244;-65
2023/10/30 15:50:57;;;;;;;3.07;1.47;;;13.70;99.90;;;;;;8330935;28;20188;-63
2023/10/30 15:54:58;;;;;;;24.37;16.20;;;13.60;99.90;;;;;;8333419;28;20193;-63
2023/10/30 15:58:59;;;;;;;18.37;12.23;;;13.50;99.90;;;;;;8327071;28;20194;-61
2023/10/30 16:03:00;;;;;;;13.50;8.73;;;13.40;99.90;;;;;;8334682;28;20240;-63
2023/10/30 16:07:01;;;;;;;9.77;6.23;;;13.30;99.90;;;;;;8328050;28;20190;-62
2023/10/30 16:11:02;;;;;;;29.27;17.27;;;13.20;99.90;;;;;;8329293;28;20259;-63
2023/10/30 16:15:05;;;;;;;34.43;21.23;;;13.10;99.90;;;;;;8332682;28;20474;-63
2023/10/30 16:19:06;;;;;;;20.17;11.47;;;13.00;99.90;;;;;;8334517;28;20215;-63
2023/10/30 16:23:07;;;;;;;25.03;14.30;;;12.90;99.90;;;;;;8334543;28;20289;-62
2023/10/30 16:27:08;;;;;;;28.73;16.33;;;12.80;1.00;;;;;;8335662;28;20249;-62
2023/10/30 16:31:09;;;;;;;16.43;9.80;;;12.70;1.00;;;;;;8327271;28;20236;-62
2023/10/30 16:35:10;;;;;;;11.67;7.37;;;12.60;1.00;;;;;;8326362;28;20190;-62
2023/10/30 16:39:10;;;;;;;8.83;6.67;;;12.50;1.00;;;;;;8332601;28;20193;-61
2023/10/30 16:43:11;;;;;;;15.67;9.67;;;12.30;1.00;;;;;;8326934;28;20271;-62
2023/10/30 16:47:13;;;;;;;48.93;25.60;;;12.30;1.00;;;;;;8332922;28;20193;-61
2023/10/30 16:51:14;;;;;;;45.90;23.80;;;12.20;1.00;;;;;;8325242;28;20265;-61
2023/10/30 16:55:15;;;;;;;35.27;20.93;;;12.30;1.00;;;;;;8326694;28;20202;-61
2023/10/30 16:59:16;;;;;;;21.33;14.17;;;12.20;99.90;;;;;;8327517;28;20194;-63
2023/10/30 17:03:16;;;;;;;16.53;9.17;;;12.00;69.80;;;;;;8322531;28;20606;-63
2023/10/30 17:07:17;;;;;;;10.33;5.77;;;11.90;60.10;;;;;;8327249;28;20180;-62
2023/10/30 17:11:18;;;;;;;5.20;3.77;;;11.90;99.90;;;;;;8331296;28;20190;-64
2023/10/30 17:15:19;;;;;;;8.73;3.40;;;11.90;99.90;;;;;;8327293;28;20186;-62
2023/10/30 17:19:20;;;;;;;5.37;2.90;;;12.00;1.00;;;;;;8327721;28;20184;-63
2023/10/30 17:23:21;;;;;;;8.50;5.43;;;12.20;1.00;;;;;;8327654;28;20289;-68
2023/10/30 17:27:22;;;;;;;10.13;5.57;;;12.40;99.90;;;;;;8329331;28;20182;-68
2023/10/30 17:31:23;;;;;;;5.63;3.40;;;12.60;99.90;;;;;;8333744;28;20251;-68
2023/10/30 17:35:24;;;;;;;15.07;8.93;;;12.70;99.90;;;;;;8354560;28;20646;-68
2023/10/30 17:39:24;;;;;;;43.53;26.87;;;12.70;99.90;;;;;;8331076;28;20231;-67
2023/10/30 17:43:25;;;;;;;74.37;40.20;;;12.80;99.90;;;;;;8333106;28;20196;-67
2023/10/30 17:47:26;;;;;;;172.67;110.20;;;12.80;99.90;;;;;;8329444;28;20185;-68
2023/10/30 17:51:27;;;;;;;107.40;66.73;;;12.70;99.90;;;;;;8328080;28;20255;-67
2023/10/30 17:55:29;;;;;;;109.97;57.70;;;12.60;99.90;;;;;;8325861;28;20197;-68
2023/10/30 17:59:30;;;;;;;64.27;35.10;;;12.50;99.90;;;;;;8327826;28;20217;-68
2023/10/30 18:03:31;;;;;;;63.73;34.90;;;12.50;99.90;;;;;;8322322;28;20234;-66
2023/10/30 18:07:33;;;;;;;55.83;30.80;;;12.40;99.90;;;;;;8327335;28;20174;-67
2023/10/30 18:11:34;;;;;;;58.30;34.80;;;12.30;99.90;;;;;;8328304;28;20286;-67
2023/10/30 18:15:35;;;;;;;49.70;29.73;;;12.20;99.90;;;;;;8329750;28;20187;-67
2023/10/30 18:19:36;;;;;;;65.73;40.90;;;12.10;99.90;;;;;;8332242;28;20503;-66
2023/10/30 18:23:37;;;;;;;92.37;54.70;;;11.90;1.00;;;;;;8324475;28;20201;-67
2023/10/30 18:27:39;;;;;;;111.73;63.53;;;11.80;1.00;;;;;;8330978;28;20191;-67
2023/10/30 18:31:40;;;;;;;74.90;41.17;;;11.70;1.00;;;;;;8361427;28;20197;-67
2023/10/30 18:35:41;;;;;;;47.87;27.90;;;11.60;1.00;;;;;;8331625;28;20201;-67
2023/10/30 18:39:42;;;;;;;30.03;17.90;;;11.60;99.90;;;;;;8335766;28;20256;-67
2023/10/30 18:43:43;;;;;;;103.83;54.53;;;11.60;99.90;;;;;;8331518;28;20208;-67
2023/10/30 18:47:44;;;;;;;84.80;48.63;;;11.50;1.00;;;;;;8330617;28;20185;-68
2023/10/30 18:51:45;;;;;;;112.20;64.60;;;11.40;99.90;;;;;;8331888;28;20221;-68
2023/10/30 18:55:46;;;;;;;109.80;60.80;;;11.40;99.90;;;;;;8329883;28;20352;-68
2023/10/30 18:59:48;;;;;;;59.77;36.00;;;11.30;1.00;;;;;;8330038;28;20240;-68
2023/10/30 19:03:50;;;;;;;30.83;17.37;;;11.30;1.00;;;;;;8329582;28;20203;-68
2023/10/30 19:07:51;;;;;;;17.07;10.77;;;11.30;49.10;;;;;;8327004;28;20194;-67
2023/10/30 19:11:57;;;;;;;15.77;9.40;;;11.30;99.90;;;;;;8328334;28;20434;-68
2023/10/30 19:16:00;;;;;;;11.90;8.90;;;11.40;99.90;;;;;;8333420;28;20183;-66
2023/10/30 19:20:01;;;;;;;17.83;8.43;;;11.40;99.90;;;;;;8334807;28;20190;-67
2023/10/30 19:24:02;;;;;;;12.30;8.10;;;11.40;99.90;;;;;;8328642;28;20316;-66
2023/10/30 19:28:03;;;;;;;10.17;7.70;;;11.50;1.00;;;;;;8330703;28;20196;-67
2023/10/30 19:32:04;;;;;;;8.90;5.83;;;11.60;1.00;;;;;;8361273;28;20197;-66
2023/10/30 19:36:06;;;;;;;8.13;5.57;;;11.60;99.90;;;;;;8328729;28;20190;-68
2023/10/30 19:40:08;;;;;;;9.57;6.30;;;11.60;99.90;;;;;;8338463;28;20239;-68
2023/10/30 19:44:09;;;;;;;11.47;5.87;;;11.60;99.90;;;;;;8331327;28;20619;-67
2023/10/30 19:48:10;;;;;;;17.23;9.40;;;11.60;99.90;;;;;;8348254;28;20206;-68
2023/10/30 19:52:11;;;;;;;10.93;6.93;;;11.60;99.90;;;;;;8326613;28;20236;-66
2023/10/30 19:56:13;;;;;;;10.57;6.37;;;11.70;99.90;;;;;;8328916;28;20276;-64
2023/10/30 20:00:16;;;;;;;11.93;6.67;;;11.70;99.90;;;;;;8329616;28;20237;-63
2023/10/30 20:04:17;;;;;;;12.07;5.50;;;11.80;99.90;;;;;;8326792;28;20285;-63
2023/10/30 20:08:18;;;;;;;7.80;5.37;;;11.90;90.80;;;;;;8329700;28;20250;-61
2023/10/30 20:12:20;;;;;;;14.23;7.07;;;12.00;22.20;;;;;;8360418;28;20197;-62
2023/10/30 20:16:20;;;;;;;16.57;7.60;;;12.10;1.00;;;;;;8329759;28;20194;-61
2023/10/30 20:20:21;;;;;;;11.03;6.33;;;12.20;1.00;;;;;;8328700;28;20189;-62
2023/10/30 20:24:22;;;;;;;39.47;18.43;;;12.30;99.90;;;;;;8325205;28;20210;-61
2023/10/30 20:28:23;;;;;;;33.03;17.13;;;12.40;99.90;;;;;;8329772;28;20196;-62
2023/10/30 20:32:23;;;;;;;49.90;24.40;;;12.50;94.50;;;;;;8327461;28;20190;-62
2023/10/30 20:36:28;;;;;;;32.97;19.67;;;12.50;1.00;;;;;;8324362;28;20298;-63
2023/10/30 20:40:29;;;;;;;29.53;16.60;;;12.60;1.00;;;;;;8328041;28;20182;-61
2023/10/30 20:44:30;;;;;;;25.27;15.07;;;12.60;1.00;;;;;;8334013;28;20213;-62
2023/10/30 20:48:31;;;;;;;18.80;11.93;;;12.60;1.00;;;;;;8325206;28;20202;-60
2023/10/30 20:52:32;;;;;;;18.13;11.53;;;12.60;1.00;;;;;;8327105;28;20178;-62
2023/10/30 20:56:33;;;;;;;16.30;8.33;;;12.60;1.00;;;;;;8325620;28;20204;-61
2023/10/30 21:00:37;;;;;;;13.30;7.40;;;12.60;1.00;;;;;;8326636;28;20202;-62